Stortebeker — ZDEG7 — position and weather

sailwx.info

Track history (hours):
 
Tides and Currents Weather Stations Pressure Air Temp Water Temp Dewpoint Dewpoint Depression Visibility Wind Speed Wind Dir Waves Ship Positions

Stortebeker

Last reported at 2017-Oct-22 18:47 UTC. Time now 2017-Oct-22 19:08 UTC.
Position N 45°57' W 000°57'.

Length 82 m; draft 4.1 m.

Type: Cargo ship. MMSI: 236119000.

Date/timePositionNaut miles runAvg speedWind from/ knotsBaromVisibWave heightAir tempDewpointWater temp
2017-Oct-22 18:47N 45°57' W 000°57'0 0.0
2017-Oct-22 18:31N 45°57' W 000°57'0 0.0
2017-Oct-22 15:11N 45°57' W 000°57'0 0.0
2017-Oct-22 14:05N 45°57' W 000°57'0 0.0
2017-Oct-22 14:00N 45°57' W 000°57'0 0.0
2017-Oct-22 13:30N 45°57' W 000°57'0 0.0
2017-Oct-22 13:00N 45°57' W 000°57'0 0.0
2017-Oct-22 12:30N 45°57' W 000°57'0 0.0
2017-Oct-22 12:00N 45°57' W 000°57'0 0.0
2017-Oct-22 11:30N 45°57' W 000°57'0 0.0
2017-Oct-22 11:00N 45°57' W 000°57'0 0.0
2017-Oct-22 10:30N 45°57' W 000°57'0 0.0
2017-Oct-22 09:55N 45°57' W 000°57'0 0.0
2017-Oct-22 09:30N 45°57' W 000°57'0 0.0
2017-Oct-22 09:01N 45°57' W 000°57'0 0.0
2017-Oct-22 07:48N 45°57' W 000°57'0 0.0
2017-Oct-22 07:31N 45°57' W 000°57'0 0.0
2017-Oct-22 07:00N 45°57' W 000°57'0 0.0
2017-Oct-22 06:27N 45°57' W 000°57'0 0.0
2017-Oct-22 06:00N 45°57' W 000°57'0 0.0
2017-Oct-22 05:30N 45°57' W 000°57'0 0.0
2017-Oct-22 05:00N 45°57' W 000°57'0 0.0
2017-Oct-22 04:31N 45°57' W 000°57'0 0.0
2017-Oct-22 03:21N 45°57' W 000°57'0 0.0
2017-Oct-22 02:06N 45°57' W 000°57'0 0.0
2017-Oct-22 02:00N 45°57' W 000°57'0 0.0
2017-Oct-22 01:30N 45°57' W 000°57'0 0.0
2017-Oct-22 01:00N 45°57' W 000°57'0 0.0
2017-Oct-22 00:27N 45°57' W 000°57'0 0.0
2017-Oct-22 00:00N 45°57' W 000°57'0 0.0
2017-Oct-21 15:44N 45°57' W 000°57'0 0.0
2017-Oct-21 15:29N 45°57' W 000°57'0 0.0
2017-Oct-21 11:40N 45°57' W 000°57'0 0.0
2017-Oct-21 11:30N 45°57' W 000°57'0 0.0
2017-Oct-21 09:16N 45°57' W 000°57'0 0.0
2017-Oct-21 08:56N 45°57' W 000°57'0 0.0
2017-Oct-21 08:30N 45°57' W 000°57'0 0.0
2017-Oct-21 08:01N 45°57' W 000°57'0 0.0
2017-Oct-21 07:30N 45°57' W 000°57'0 0.0
2017-Oct-21 06:34N 45°57' W 000°57'0 0.0
2017-Oct-21 06:28N 45°57' W 000°57'0 0.0
2017-Oct-21 04:43N 45°57' W 000°57'0 0.0
2017-Oct-21 04:30N 45°57' W 000°57'0 0.0
2017-Oct-21 03:50N 45°57' W 000°57'0 0.0
2017-Oct-21 03:28N 45°57' W 000°57'0 0.0
2017-Oct-21 02:59N 45°57' W 000°57'0 0.0
2017-Oct-21 02:26N 45°57' W 000°57'0 0.0
2017-Oct-21 01:59N 45°57' W 000°57'0 0.0
2017-Oct-20 20:54N 45°57' W 000°57'0 0.0
2017-Oct-20 20:28N 45°57' W 000°57'0 0.0
2017-Oct-20 16:31N 45°57' W 000°57'0 0.0
2017-Oct-20 16:30N 45°57' W 000°57'0 0.0
2017-Oct-20 15:57N 45°57' W 000°57'0 0.0
2017-Oct-20 15:21N 45°57' W 000°57'0 0.0
2017-Oct-20 14:59N 45°57' W 000°57'0 0.0
2017-Oct-19 15:47N 45°57' W 000°57'2 4.3
2017-Oct-19 15:23N 45°55' W 000°57'4 7.7
2017-Oct-19 14:54N 45°58' W 000°60'4 9.7
2017-Oct-19 14:31N 45°58' W 001°05'611.3
2017-Oct-19 14:00N 46°01' W 001°12'4 7.8
2017-Oct-19 13:30N 46°04' W 001°15'0 0.2
2017-Oct-19 13:00N 46°04' W 001°14'0 0.0
2017-Oct-19 12:30N 46°04' W 001°14'0 0.0
2017-Oct-19 12:00N 46°04' W 001°14'0 0.0
2017-Oct-19 11:30N 46°04' W 001°14'0 0.0
2017-Oct-19 11:00N 46°04' W 001°14'0 0.0
2017-Oct-19 10:30N 46°05' W 001°14'0 0.1
2017-Oct-19 10:00N 46°05' W 001°14'0 0.1
2017-Oct-19 09:30N 46°05' W 001°14'0 0.1
2017-Oct-19 09:00N 46°05' W 001°15'0 0.0
2017-Oct-19 08:30N 46°05' W 001°15'0 0.0
2017-Oct-19 08:00N 46°05' W 001°15'0 0.0
2017-Oct-19 07:30N 46°05' W 001°15'0 0.2
2017-Oct-19 07:00N 46°04' W 001°15'4 7.0
2017-Oct-19 06:30N 46°05' W 001°19'4 8.7
2017-Oct-19 06:00N 46°07' W 001°26'4 8.9
2017-Oct-19 05:30N 46°07' W 001°32'5 9.4
2017-Oct-19 05:00N 46°08' W 001°39'9 8.3
2017-Oct-19 03:57N 46°15' W 001°44'4 9.9
2017-Oct-19 03:30N 46°20' W 001°45'5 9.9
2017-Oct-19 03:00N 46°25' W 001°46'5 9.1
2017-Oct-19 02:30N 46°29' W 001°47'1 1.8
2017-Oct-19 01:59N 46°30' W 001°48'0 0.0
2017-Oct-19 01:29N 46°30' W 001°48'0 0.0
2017-Oct-19 00:59N 46°30' W 001°48'0 0.0
2017-Oct-19 00:29N 46°30' W 001°48'0 0.0
2017-Oct-18 23:59N 46°30' W 001°48'0 0.0
2017-Oct-18 23:29N 46°30' W 001°48'0 0.0
2017-Oct-18 22:59N 46°30' W 001°48'0 0.0
2017-Oct-18 22:29N 46°30' W 001°48'0 0.0
2017-Oct-18 21:59N 46°30' W 001°48'0 0.0
2017-Oct-18 21:29N 46°30' W 001°48'0 0.0
2017-Oct-18 20:59N 46°30' W 001°48'0 0.0
2017-Oct-18 20:29N 46°30' W 001°48'0 0.0
2017-Oct-18 19:59N 46°30' W 001°48'0 0.0
2017-Oct-18 19:30N 46°30' W 001°48'0 0.0
2017-Oct-18 19:00N 46°30' W 001°48'0 0.0
2017-Oct-18 18:30N 46°30' W 001°48'0 0.0
2017-Oct-18 18:00N 46°30' W 001°48'0 0.0
2017-Oct-18 17:30N 46°30' W 001°48'0 0.0
2017-Oct-18 17:00N 46°30' W 001°48'0 0.0
2017-Oct-18 16:30N 46°30' W 001°48'0 0.0
2017-Oct-18 16:00N 46°30' W 001°48'0 0.0
2017-Oct-18 15:30N 46°30' W 001°48'0 0.0
2017-Oct-18 15:00N 46°30' W 001°48'0 0.0
2017-Oct-18 14:00N 46°30' W 001°48'0 0.0
2017-Oct-18 13:30N 46°30' W 001°48'0 0.0
2017-Oct-18 13:00N 46°30' W 001°48'0 0.0
2017-Oct-18 12:30N 46°30' W 001°48'0 0.0
2017-Oct-18 12:00N 46°30' W 001°48'0 0.0
2017-Oct-18 11:30N 46°30' W 001°48'0 0.0
2017-Oct-18 11:00N 46°30' W 001°48'0 0.0
2017-Oct-18 10:30N 46°30' W 001°48'0 0.0
2017-Oct-18 10:00N 46°30' W 001°48'0 0.0
2017-Oct-18 09:30N 46°30' W 001°48'0 0.2
2017-Oct-18 09:00N 46°30' W 001°48'0 0.0
2017-Oct-18 08:30N 46°30' W 001°48'0 0.0
2017-Oct-18 08:00N 46°30' W 001°48'0 0.0
2017-Oct-18 07:30N 46°30' W 001°48'0 0.0
2017-Oct-18 07:00N 46°30' W 001°48'0 0.0
2017-Oct-18 06:30N 46°30' W 001°48'0 0.0
2017-Oct-18 06:00N 46°30' W 001°48'0 0.0
2017-Oct-18 05:30N 46°30' W 001°48'0 0.0
2017-Oct-18 05:00N 46°30' W 001°48'0 0.0
2017-Oct-18 04:30N 46°30' W 001°48'0 0.0
2017-Oct-18 04:00N 46°30' W 001°48'0 0.0
2017-Oct-18 03:30N 46°30' W 001°48'0 0.0
2017-Oct-18 03:00N 46°30' W 001°48'0 0.0
2017-Oct-18 02:30N 46°30' W 001°48'0 0.0
2017-Oct-18 02:00N 46°30' W 001°48'0 0.0
2017-Oct-18 01:30N 46°30' W 001°48'0 0.0
2017-Oct-18 01:00N 46°30' W 001°48'0 0.0
2017-Oct-18 00:30N 46°30' W 001°48'0 0.0
2017-Oct-18 00:00N 46°30' W 001°48'0 0.0
2017-Oct-17 23:30N 46°30' W 001°48'0 0.0
2017-Oct-17 23:00N 46°30' W 001°48'0 0.0
2017-Oct-17 22:30N 46°30' W 001°48'0 0.0
2017-Oct-17 22:00N 46°30' W 001°48'0 0.0
2017-Oct-17 21:30N 46°30' W 001°48'0 0.0
2017-Oct-17 21:00N 46°30' W 001°48'0 0.0
2017-Oct-17 20:30N 46°30' W 001°48'0 0.0
2017-Oct-17 20:00N 46°30' W 001°48'0 0.0
2017-Oct-17 19:30N 46°30' W 001°48'0 0.0
2017-Oct-17 19:00N 46°30' W 001°48'0 0.0
2017-Oct-17 18:30N 46°30' W 001°48'0 0.0
2017-Oct-17 18:00N 46°30' W 001°48'0 0.0
2017-Oct-17 17:30N 46°30' W 001°48'0 0.0
2017-Oct-17 17:00N 46°30' W 001°48'0 0.0
2017-Oct-17 16:30N 46°30' W 001°48'0 0.0
2017-Oct-17 16:00N 46°30' W 001°48'0 0.0
2017-Oct-17 15:30N 46°30' W 001°48'0 0.0
2017-Oct-17 15:00N 46°30' W 001°48'0 0.0
2017-Oct-17 14:30N 46°30' W 001°48'0 0.0
2017-Oct-17 14:00N 46°30' W 001°48'0 0.0
2017-Oct-17 13:30N 46°30' W 001°48'0 0.0
2017-Oct-17 13:00N 46°30' W 001°48'0 0.0
2017-Oct-17 12:30N 46°30' W 001°48'0 0.0
2017-Oct-17 12:00N 46°30' W 001°48'0 0.0
2017-Oct-17 11:30N 46°30' W 001°48'0 0.0
2017-Oct-17 11:00N 46°30' W 001°48'0 0.0
2017-Oct-17 10:30N 46°30' W 001°48'0 0.0
2017-Oct-17 10:00N 46°30' W 001°48'0 0.0
2017-Oct-17 09:30N 46°30' W 001°48'0 0.0
2017-Oct-17 09:00N 46°30' W 001°48'0 0.0
2017-Oct-17 08:30N 46°30' W 001°48'0 0.0
2017-Oct-17 08:00N 46°30' W 001°48'0 0.0
2017-Oct-17 07:30N 46°30' W 001°48'0 0.0
2017-Oct-17 07:00N 46°30' W 001°48'0 0.0
2017-Oct-17 06:30N 46°30' W 001°48'0 0.0
2017-Oct-17 06:00N 46°30' W 001°48'0 0.0
2017-Oct-17 05:30N 46°30' W 001°48'0 0.0
2017-Oct-17 05:00N 46°30' W 001°48'0 0.0
2017-Oct-17 04:30N 46°30' W 001°48'0 0.0
2017-Oct-17 04:00N 46°30' W 001°48'0 0.0
2017-Oct-17 03:30N 46°30' W 001°48'0 0.0
2017-Oct-17 03:00N 46°30' W 001°48'0 0.0
2017-Oct-17 02:30N 46°30' W 001°48'0 0.0
2017-Oct-17 02:00N 46°30' W 001°48'0 0.0
2017-Oct-17 01:30N 46°30' W 001°48'0 0.0
2017-Oct-17 01:01N 46°30' W 001°48'0 0.0
2017-Oct-17 00:30N 46°30' W 001°48'0 0.0
2017-Oct-17 00:00N 46°30' W 001°48'0 0.0
2017-Oct-16 23:30N 46°30' W 001°48'0 0.0
2017-Oct-16 23:00N 46°30' W 001°48'0 0.0
2017-Oct-16 22:30N 46°30' W 001°48'0 0.0
2017-Oct-16 22:00N 46°30' W 001°48'0 0.0
2017-Oct-16 21:30N 46°30' W 001°48'0 0.0
2017-Oct-16 21:01N 46°30' W 001°48'0 0.0
2017-Oct-16 20:31N 46°30' W 001°48'0 0.0
2017-Oct-16 20:00N 46°30' W 001°48'0 0.0
2017-Oct-16 19:31N 46°30' W 001°48'0 0.0
2017-Oct-16 19:01N 46°30' W 001°48'0 0.0
2017-Oct-16 18:30N 46°30' W 001°48'0 0.0
2017-Oct-16 18:01N 46°30' W 001°48'0 0.0
2017-Oct-16 17:30N 46°30' W 001°48'0 0.0
2017-Oct-16 17:00N 46°30' W 001°48'0 0.0
2017-Oct-16 16:30N 46°30' W 001°48'0 0.0
2017-Oct-16 16:01N 46°30' W 001°48'0 0.0
2017-Oct-16 15:31N 46°30' W 001°48'0 0.0
2017-Oct-16 15:01N 46°30' W 001°48'0 0.0
2017-Oct-16 14:01N 46°30' W 001°48'0 0.4
2017-Oct-16 13:30N 46°30' W 001°48'2 4.6
2017-Oct-16 13:00N 46°27' W 001°48'5 9.4
2017-Oct-16 12:31N 46°23' W 001°51'5 9.5
2017-Oct-16 12:01N 46°20' W 001°56'7 9.6
2017-Oct-16 11:20N 46°15' W 002°02'7110.0
2017-Oct-16 04:11N 45°39' W 003°30'510.4
2017-Oct-16 03:39N 45°36' W 003°37'311.4
2017-Oct-16 03:21N 45°34' W 003°42'511.3
2017-Oct-16 02:53N 45°32' W 003°48'411.2
2017-Oct-16 02:30N 45°30' W 003°54'610.7
2017-Oct-16 01:58N 45°27' W 004°01'510.6
2017-Oct-16 01:30N 45°25' W 004°07'710.9
2017-Oct-16 00:53N 45°22' W 004°15'510.9
2017-Oct-16 00:28N 45°20' W 004°21'511.1
2017-Oct-15 23:59N 45°17' W 004°28'710.9
2017-Oct-15 23:18N 45°14' W 004°37'410.9
2017-Oct-15 22:57N 45°12' W 004°42'610.9
2017-Oct-15 22:26N 45°09' W 004°49'511.1
2017-Oct-15 22:01N 45°07' W 004°55'510.9
2017-Oct-15 21:31N 45°05' W 005°02'610.9
2017-Oct-15 20:56N 45°02' W 005°10'  
Track history (hours):
 
Tides and Currents Weather Stations Pressure Air Temp Water Temp Dewpoint Dewpoint Depression Visibility Wind Speed Wind Dir Waves Ship Positions

Stortebeker

Last reported at 2017-Oct-22 18:47 UTC. Time now 2017-Oct-22 19:08 UTC.
Position N 45°57' W 000°57'.

Length 82 m; draft 4.1 m.

Type: Cargo ship. MMSI: 236119000.

Date/timePositionNaut miles runAvg speedWind from/ knotsBaromVisibWave heightAir tempDewpointWater temp
2017-Oct-22 18:47N 45°57' W 000°57'0 0.0
2017-Oct-22 18:31N 45°57' W 000°57'0 0.0
2017-Oct-22 15:11N 45°57' W 000°57'0 0.0
2017-Oct-22 14:05N 45°57' W 000°57'0 0.0
2017-Oct-22 14:00N 45°57' W 000°57'0 0.0
2017-Oct-22 13:30N 45°57' W 000°57'0 0.0
2017-Oct-22 13:00N 45°57' W 000°57'0 0.0
2017-Oct-22 12:30N 45°57' W 000°57'0 0.0
2017-Oct-22 12:00N 45°57' W 000°57'0 0.0
2017-Oct-22 11:30N 45°57' W 000°57'0 0.0
2017-Oct-22 11:00N 45°57' W 000°57'0 0.0
2017-Oct-22 10:30N 45°57' W 000°57'0 0.0
2017-Oct-22 09:55N 45°57' W 000°57'0 0.0
2017-Oct-22 09:30N 45°57' W 000°57'0 0.0
2017-Oct-22 09:01N 45°57' W 000°57'0 0.0
2017-Oct-22 07:48N 45°57' W 000°57'0 0.0
2017-Oct-22 07:31N 45°57' W 000°57'0 0.0
2017-Oct-22 07:00N 45°57' W 000°57'0 0.0
2017-Oct-22 06:27N 45°57' W 000°57'0 0.0
2017-Oct-22 06:00N 45°57' W 000°57'0 0.0
2017-Oct-22 05:30N 45°57' W 000°57'0 0.0
2017-Oct-22 05:00N 45°57' W 000°57'0 0.0
2017-Oct-22 04:31N 45°57' W 000°57'0 0.0
2017-Oct-22 03:21N 45°57' W 000°57'0 0.0
2017-Oct-22 02:06N 45°57' W 000°57'0 0.0
2017-Oct-22 02:00N 45°57' W 000°57'0 0.0
2017-Oct-22 01:30N 45°57' W 000°57'0 0.0
2017-Oct-22 01:00N 45°57' W 000°57'0 0.0
2017-Oct-22 00:27N 45°57' W 000°57'0 0.0
2017-Oct-22 00:00N 45°57' W 000°57'0 0.0
2017-Oct-21 15:44N 45°57' W 000°57'0 0.0
2017-Oct-21 15:29N 45°57' W 000°57'0 0.0
2017-Oct-21 11:40N 45°57' W 000°57'0 0.0
2017-Oct-21 11:30N 45°57' W 000°57'0 0.0
2017-Oct-21 09:16N 45°57' W 000°57'0 0.0
2017-Oct-21 08:56N 45°57' W 000°57'0 0.0
2017-Oct-21 08:30N 45°57' W 000°57'0 0.0
2017-Oct-21 08:01N 45°57' W 000°57'0 0.0
2017-Oct-21 07:30N 45°57' W 000°57'0 0.0
2017-Oct-21 06:34N 45°57' W 000°57'0 0.0
2017-Oct-21 06:28N 45°57' W 000°57'0 0.0
2017-Oct-21 04:43N 45°57' W 000°57'0 0.0
2017-Oct-21 04:30N 45°57' W 000°57'0 0.0
2017-Oct-21 03:50N 45°57' W 000°57'0 0.0
2017-Oct-21 03:28N 45°57' W 000°57'0 0.0
2017-Oct-21 02:59N 45°57' W 000°57'0 0.0
2017-Oct-21 02:26N 45°57' W 000°57'0 0.0
2017-Oct-21 01:59N 45°57' W 000°57'0 0.0
2017-Oct-20 20:54N 45°57' W 000°57'0 0.0
2017-Oct-20 20:28N 45°57' W 000°57'0 0.0
2017-Oct-20 16:31N 45°57' W 000°57'0 0.0
2017-Oct-20 16:30N 45°57' W 000°57'0 0.0
2017-Oct-20 15:57N 45°57' W 000°57'0 0.0
2017-Oct-20 15:21N 45°57' W 000°57'0 0.0
2017-Oct-20 14:59N 45°57' W 000°57'0 0.0
2017-Oct-19 15:47N 45°57' W 000°57'2 4.3
2017-Oct-19 15:23N 45°55' W 000°57'4 7.7
2017-Oct-19 14:54N 45°58' W 000°60'4 9.7
2017-Oct-19 14:31N 45°58' W 001°05'611.3
2017-Oct-19 14:00N 46°01' W 001°12'4 7.8
2017-Oct-19 13:30N 46°04' W 001°15'0 0.2
2017-Oct-19 13:00N 46°04' W 001°14'0 0.0
2017-Oct-19 12:30N 46°04' W 001°14'0 0.0
2017-Oct-19 12:00N 46°04' W 001°14'0 0.0
2017-Oct-19 11:30N 46°04' W 001°14'0 0.0
2017-Oct-19 11:00N 46°04' W 001°14'0 0.0
2017-Oct-19 10:30N 46°05' W 001°14'0 0.1
2017-Oct-19 10:00N 46°05' W 001°14'0 0.1
2017-Oct-19 09:30N 46°05' W 001°14'0 0.1
2017-Oct-19 09:00N 46°05' W 001°15'0 0.0
2017-Oct-19 08:30N 46°05' W 001°15'0 0.0
2017-Oct-19 08:00N 46°05' W 001°15'0 0.0
2017-Oct-19 07:30N 46°05' W 001°15'0 0.2
2017-Oct-19 07:00N 46°04' W 001°15'4 7.0
2017-Oct-19 06:30N 46°05' W 001°19'4 8.7
2017-Oct-19 06:00N 46°07' W 001°26'4 8.9
2017-Oct-19 05:30N 46°07' W 001°32'5 9.4
2017-Oct-19 05:00N 46°08' W 001°39'9 8.3
2017-Oct-19 03:57N 46°15' W 001°44'4 9.9
2017-Oct-19 03:30N 46°20' W 001°45'5 9.9
2017-Oct-19 03:00N 46°25' W 001°46'5 9.1
2017-Oct-19 02:30N 46°29' W 001°47'1 1.8
2017-Oct-19 01:59N 46°30' W 001°48'0 0.0
2017-Oct-19 01:29N 46°30' W 001°48'0 0.0
2017-Oct-19 00:59N 46°30' W 001°48'0 0.0
2017-Oct-19 00:29N 46°30' W 001°48'0 0.0
2017-Oct-18 23:59N 46°30' W 001°48'0 0.0
2017-Oct-18 23:29N 46°30' W 001°48'0 0.0
2017-Oct-18 22:59N 46°30' W 001°48'0 0.0
2017-Oct-18 22:29N 46°30' W 001°48'0 0.0
2017-Oct-18 21:59N 46°30' W 001°48'0 0.0
2017-Oct-18 21:29N 46°30' W 001°48'0 0.0
2017-Oct-18 20:59N 46°30' W 001°48'0 0.0
2017-Oct-18 20:29N 46°30' W 001°48'0 0.0
2017-Oct-18 19:59N 46°30' W 001°48'0 0.0
2017-Oct-18 19:30N 46°30' W 001°48'0 0.0
2017-Oct-18 19:00N 46°30' W 001°48'0 0.0
2017-Oct-18 18:30N 46°30' W 001°48'0 0.0
2017-Oct-18 18:00N 46°30' W 001°48'0 0.0
2017-Oct-18 17:30N 46°30' W 001°48'0 0.0
2017-Oct-18 17:00N 46°30' W 001°48'0 0.0
2017-Oct-18 16:30N 46°30' W 001°48'0 0.0
2017-Oct-18 16:00N 46°30' W 001°48'0 0.0
2017-Oct-18 15:30N 46°30' W 001°48'0 0.0
2017-Oct-18 15:00N 46°30' W 001°48'0 0.0
2017-Oct-18 14:00N 46°30' W 001°48'0 0.0
2017-Oct-18 13:30N 46°30' W 001°48'0 0.0
2017-Oct-18 13:00N 46°30' W 001°48'0 0.0
2017-Oct-18 12:30N 46°30' W 001°48'0 0.0
2017-Oct-18 12:00N 46°30' W 001°48'0 0.0
2017-Oct-18 11:30N 46°30' W 001°48'0 0.0
2017-Oct-18 11:00N 46°30' W 001°48'0 0.0
2017-Oct-18 10:30N 46°30' W 001°48'0 0.0
2017-Oct-18 10:00N 46°30' W 001°48'0 0.0
2017-Oct-18 09:30N 46°30' W 001°48'0 0.2
2017-Oct-18 09:00N 46°30' W 001°48'0 0.0
2017-Oct-18 08:30N 46°30' W 001°48'0 0.0
2017-Oct-18 08:00N 46°30' W 001°48'0 0.0
2017-Oct-18 07:30N 46°30' W 001°48'0 0.0
2017-Oct-18 07:00N 46°30' W 001°48'0 0.0
2017-Oct-18 06:30N 46°30' W 001°48'0 0.0
2017-Oct-18 06:00N 46°30' W 001°48'0 0.0
2017-Oct-18 05:30N 46°30' W 001°48'0 0.0
2017-Oct-18 05:00N 46°30' W 001°48'0 0.0
2017-Oct-18 04:30N 46°30' W 001°48'0 0.0
2017-Oct-18 04:00N 46°30' W 001°48'0 0.0
2017-Oct-18 03:30N 46°30' W 001°48'0 0.0
2017-Oct-18 03:00N 46°30' W 001°48'0 0.0
2017-Oct-18 02:30N 46°30' W 001°48'0 0.0
2017-Oct-18 02:00N 46°30' W 001°48'0 0.0
2017-Oct-18 01:30N 46°30' W 001°48'0 0.0
2017-Oct-18 01:00N 46°30' W 001°48'0 0.0
2017-Oct-18 00:30N 46°30' W 001°48'0 0.0
2017-Oct-18 00:00N 46°30' W 001°48'0 0.0
2017-Oct-17 23:30N 46°30' W 001°48'0 0.0
2017-Oct-17 23:00N 46°30' W 001°48'0 0.0
2017-Oct-17 22:30N 46°30' W 001°48'0 0.0
2017-Oct-17 22:00N 46°30' W 001°48'0 0.0
2017-Oct-17 21:30N 46°30' W 001°48'0 0.0
2017-Oct-17 21:00N 46°30' W 001°48'0 0.0
2017-Oct-17 20:30N 46°30' W 001°48'0 0.0
2017-Oct-17 20:00N 46°30' W 001°48'0 0.0
2017-Oct-17 19:30N 46°30' W 001°48'0 0.0
2017-Oct-17 19:00N 46°30' W 001°48'0 0.0
2017-Oct-17 18:30N 46°30' W 001°48'0 0.0
2017-Oct-17 18:00N 46°30' W 001°48'0 0.0
2017-Oct-17 17:30N 46°30' W 001°48'0 0.0
2017-Oct-17 17:00N 46°30' W 001°48'0 0.0
2017-Oct-17 16:30N 46°30' W 001°48'0 0.0
2017-Oct-17 16:00N 46°30' W 001°48'0 0.0
2017-Oct-17 15:30N 46°30' W 001°48'0 0.0
2017-Oct-17 15:00N 46°30' W 001°48'0 0.0
2017-Oct-17 14:30N 46°30' W 001°48'0 0.0
2017-Oct-17 14:00N 46°30' W 001°48'0 0.0
2017-Oct-17 13:30N 46°30' W 001°48'0 0.0
2017-Oct-17 13:00N 46°30' W 001°48'0 0.0
2017-Oct-17 12:30N 46°30' W 001°48'0 0.0
2017-Oct-17 12:00N 46°30' W 001°48'0 0.0
2017-Oct-17 11:30N 46°30' W 001°48'0 0.0
2017-Oct-17 11:00N 46°30' W 001°48'0 0.0
2017-Oct-17 10:30N 46°30' W 001°48'0 0.0
2017-Oct-17 10:00N 46°30' W 001°48'0 0.0
2017-Oct-17 09:30N 46°30' W 001°48'0 0.0
2017-Oct-17 09:00N 46°30' W 001°48'0 0.0
2017-Oct-17 08:30N 46°30' W 001°48'0 0.0
2017-Oct-17 08:00N 46°30' W 001°48'0 0.0
2017-Oct-17 07:30N 46°30' W 001°48'0 0.0
2017-Oct-17 07:00N 46°30' W 001°48'0 0.0
2017-Oct-17 06:30N 46°30' W 001°48'0 0.0
2017-Oct-17 06:00N 46°30' W 001°48'0 0.0
2017-Oct-17 05:30N 46°30' W 001°48'0 0.0
2017-Oct-17 05:00N 46°30' W 001°48'0 0.0
2017-Oct-17 04:30N 46°30' W 001°48'0 0.0
2017-Oct-17 04:00N 46°30' W 001°48'0 0.0
2017-Oct-17 03:30N 46°30' W 001°48'0 0.0
2017-Oct-17 03:00N 46°30' W 001°48'0 0.0
2017-Oct-17 02:30N 46°30' W 001°48'0 0.0
2017-Oct-17 02:00N 46°30' W 001°48'0 0.0
2017-Oct-17 01:30N 46°30' W 001°48'0 0.0
2017-Oct-17 01:01N 46°30' W 001°48'0 0.0
2017-Oct-17 00:30N 46°30' W 001°48'0 0.0
2017-Oct-17 00:00N 46°30' W 001°48'0 0.0
2017-Oct-16 23:30N 46°30' W 001°48'0 0.0
2017-Oct-16 23:00N 46°30' W 001°48'0 0.0
2017-Oct-16 22:30N 46°30' W 001°48'0 0.0
2017-Oct-16 22:00N 46°30' W 001°48'0 0.0
2017-Oct-16 21:30N 46°30' W 001°48'0 0.0
2017-Oct-16 21:01N 46°30' W 001°48'0 0.0
2017-Oct-16 20:31N 46°30' W 001°48'0 0.0
2017-Oct-16 20:00N 46°30' W 001°48'0 0.0
2017-Oct-16 19:31N 46°30' W 001°48'0 0.0
2017-Oct-16 19:01N 46°30' W 001°48'0 0.0
2017-Oct-16 18:30N 46°30' W 001°48'0 0.0
2017-Oct-16 18:01N 46°30' W 001°48'0 0.0
2017-Oct-16 17:30N 46°30' W 001°48'0 0.0
2017-Oct-16 17:00N 46°30' W 001°48'0 0.0
2017-Oct-16 16:30N 46°30' W 001°48'0 0.0
2017-Oct-16 16:01N 46°30' W 001°48'0 0.0
2017-Oct-16 15:31N 46°30' W 001°48'0 0.0
2017-Oct-16 15:01N 46°30' W 001°48'0 0.0
2017-Oct-16 14:01N 46°30' W 001°48'0 0.4
2017-Oct-16 13:30N 46°30' W 001°48'2 4.6
2017-Oct-16 13:00N 46°27' W 001°48'5 9.4
2017-Oct-16 12:31N 46°23' W 001°51'5 9.5
2017-Oct-16 12:01N 46°20' W 001°56'7 9.6
2017-Oct-16 11:20N 46°15' W 002°02'7110.0
2017-Oct-16 04:11N 45°39' W 003°30'510.4
2017-Oct-16 03:39N 45°36' W 003°37'311.4
2017-Oct-16 03:21N 45°34' W 003°42'511.3
2017-Oct-16 02:53N 45°32' W 003°48'411.2
2017-Oct-16 02:30N 45°30' W 003°54'610.7
2017-Oct-16 01:58N 45°27' W 004°01'510.6
2017-Oct-16 01:30N 45°25' W 004°07'710.9
2017-Oct-16 00:53N 45°22' W 004°15'510.9
2017-Oct-16 00:28N 45°20' W 004°21'511.1
2017-Oct-15 23:59N 45°17' W 004°28'710.9
2017-Oct-15 23:18N 45°14' W 004°37'410.9
2017-Oct-15 22:57N 45°12' W 004°42'610.9
2017-Oct-15 22:26N 45°09' W 004°49'511.1
2017-Oct-15 22:01N 45°07' W 004°55'510.9
2017-Oct-15 21:31N 45°05' W 005°02'610.9
2017-Oct-15 20:56N 45°02' W 005°10'  

Dump ship's entire track history